Time;durP1;ratioP1;P1;durP2;ratioP2;P2;SDS_P1;SDS_P2;PMS_P1;PMS_P2;Temp;Humidity;BMP_temperature;BMP_pressure;BME280_temperature;BME280_humidity;BME280_pressure;Samples;Min_cycle;Max_cycle;Signal;HPM_P1;HPM_P2
2023/09/02 00:00:28;;;;;;;3.33;2.33;;;13.80;99.90;;;;;;4982406;28;20183;-86
2023/09/02 00:02:54;;;;;;;4.90;2.40;;;13.80;99.90;;;;;;4999134;28;20707;-86
2023/09/02 00:05:20;;;;;;;3.40;2.40;;;13.80;99.90;;;;;;4998045;28;20231;-86
2023/09/02 00:07:46;;;;;;;4.43;2.60;;;13.80;99.90;;;;;;4981634;28;20225;-86
2023/09/02 00:10:12;;;;;;;1.97;1.60;;;13.80;99.90;;;;;;4981073;28;20217;-86
2023/09/02 00:12:38;;;;;;;4.87;2.53;;;13.80;99.90;;;;;;5003975;28;20225;-86
2023/09/02 00:15:05;;;;;;;6.67;2.83;;;13.80;99.90;;;;;;5021961;28;20585;-86
2023/09/02 00:17:31;;;;;;;2.60;1.83;;;13.80;99.90;;;;;;5057067;28;20225;-82
2023/09/02 00:19:57;;;;;;;2.67;2.00;;;13.70;99.90;;;;;;4994132;28;20679;-83
2023/09/02 00:22:23;;;;;;;3.90;2.00;;;13.60;99.90;;;;;;5024869;28;20210;-86
2023/09/02 00:24:49;;;;;;;1.67;1.50;;;13.60;99.90;;;;;;5010807;28;20320;-84
2023/09/02 00:27:14;;;;;;;3.70;2.27;;;13.60;99.90;;;;;;5024207;28;20217;-84
2023/09/02 00:29:40;;;;;;;3.40;1.97;;;13.50;99.90;;;;;;5005544;28;21088;-84
2023/09/02 00:32:06;;;;;;;1.53;1.43;;;13.50;99.90;;;;;;5037097;28;21049;-86
2023/09/02 00:34:31;;;;;;;3.63;1.93;;;13.50;99.90;;;;;;5013989;28;20210;-86
2023/09/02 00:36:57;;;;;;;3.47;1.87;;;13.50;99.90;;;;;;5011315;28;20261;-86
2023/09/02 00:39:23;;;;;;;3.07;2.13;;;13.50;99.90;;;;;;5040924;28;20575;-86
2023/09/02 00:41:53;;;;;;;1.90;1.30;;;13.50;99.90;;;;;;4989743;28;20218;-86
2023/09/02 00:44:19;;;;;;;3.00;2.30;;;13.50;99.90;;;;;;5039352;28;20249;-84
2023/09/02 00:46:45;;;;;;;4.80;2.30;;;13.40;99.90;;;;;;4995160;28;20301;-86
2023/09/02 00:49:12;;;;;;;3.07;1.30;;;13.50;99.90;;;;;;5029460;28;20221;-85
2023/09/02 00:51:38;;;;;;;3.83;2.33;;;13.50;99.90;;;;;;5021212;28;20226;-86
2023/09/02 00:54:04;;;;;;;8.07;2.57;;;13.40;99.90;;;;;;5005320;28;20190;-86
2023/09/02 00:56:32;;;;;;;4.00;2.53;;;13.40;99.90;;;;;;5023068;28;20283;-85
2023/09/02 00:59:02;;;;;;;3.87;2.40;;;13.40;99.90;;;;;;5010106;28;20325;-84
2023/09/02 01:01:29;;;;;;;3.83;2.10;;;13.30;99.90;;;;;;5032843;28;20220;-84
2023/09/02 01:03:56;;;;;;;2.90;2.57;;;13.30;99.90;;;;;;5035593;28;20233;-85
2023/09/02 01:06:22;;;;;;;5.97;2.93;;;13.30;99.90;;;;;;5023617;28;20648;-84
2023/09/02 01:08:48;;;;;;;4.37;2.73;;;13.30;99.90;;;;;;5008289;28;20190;-86
2023/09/02 01:11:14;;;;;;;2.90;2.00;;;13.30;99.90;;;;;;5007425;28;20222;-86
2023/09/02 01:13:39;;;;;;;4.07;2.37;;;13.20;99.90;;;;;;5032762;28;20314;-87
2023/09/02 01:16:05;;;;;;;4.37;2.47;;;13.20;99.90;;;;;;5016169;28;20237;-86
2023/09/02 01:18:33;;;;;;;3.33;2.70;;;13.20;99.90;;;;;;4990328;28;20241;-87
2023/09/02 01:21:05;;;;;;;3.57;2.47;;;13.20;99.90;;;;;;5024384;28;20914;-86
2023/09/02 01:23:49;;;;;;;4.73;3.43;;;13.30;99.90;;;;;;5004190;28;20300;-85
2023/09/02 01:26:52;;;;;;;3.60;2.80;;;13.30;99.90;;;;;;5020875;28;20226;-83
2023/09/02 01:29:24;;;;;;;6.10;2.00;;;13.30;99.90;;;;;;5037118;28;20258;-85
2023/09/02 01:31:52;;;;;;;3.00;2.33;;;13.20;99.90;;;;;;5027817;28;20218;-85
2023/09/02 01:34:19;;;;;;;2.37;2.17;;;13.10;99.90;;;;;;4996647;28;20279;-86
2023/09/02 01:36:46;;;;;;;7.03;2.00;;;13.10;99.90;;;;;;5018602;28;20233;-86
2023/09/02 01:39:15;;;;;;;3.77;2.43;;;13.10;99.90;;;;;;4986752;28;20182;-86
2023/09/02 01:41:41;;;;;;;3.27;2.13;;;13.10;99.90;;;;;;5024477;28;20198;-85
2023/09/02 01:44:10;;;;;;;4.53;3.30;;;13.00;99.90;;;;;;4990906;28;20222;-86
2023/09/02 01:46:36;;;;;;;4.80;2.60;;;13.00;99.90;;;;;;5021486;28;20245;-86
2023/09/02 01:49:02;;;;;;;3.97;2.67;;;13.00;99.90;;;;;;5003522;28;20215;-86
2023/09/02 01:51:29;;;;;;;3.37;1.93;;;13.00;99.90;;;;;;5035986;28;20205;-86
2023/09/02 01:53:55;;;;;;;3.87;2.53;;;13.00;99.90;;;;;;5021209;28;20256;-87
2023/09/02 01:56:21;;;;;;;4.77;2.60;;;13.00;99.90;;;;;;4988383;28;20987;-86
2023/09/02 01:58:49;;;;;;;5.77;2.50;;;12.90;99.90;;;;;;5010086;28;20214;-83
2023/09/02 02:01:15;;;;;;;7.23;3.20;;;12.90;99.90;;;;;;5013200;28;20811;-86
2023/09/02 02:04:30;;;;;;;5.10;2.23;;;12.90;99.90;;;;;;5019420;28;20234;-86
2023/09/02 02:07:02;;;;;;;3.03;2.43;;;12.80;99.90;;;;;;5009867;28;20210;-84
2023/09/02 02:09:43;;;;;;;4.80;2.67;;;12.90;99.90;;;;;;5019274;28;20175;-86
2023/09/02 02:12:09;;;;;;;3.63;2.30;;;12.90;99.90;;;;;;5020571;28;20292;-84
2023/09/02 02:14:35;;;;;;;4.50;2.63;;;12.80;99.90;;;;;;5025555;28;20288;-86
2023/09/02 02:17:02;;;;;;;4.33;3.00;;;12.80;99.90;;;;;;5001315;28;20281;-86
2023/09/02 02:19:28;;;;;;;3.90;2.17;;;12.70;99.90;;;;;;4972808;28;20220;-85
2023/09/02 02:21:54;;;;;;;6.60;3.03;;;12.70;99.90;;;;;;4969673;28;20285;-85
2023/09/02 02:24:20;;;;;;;4.33;2.30;;;12.70;99.90;;;;;;4999245;28;20212;-86
2023/09/02 02:26:45;;;;;;;4.67;2.63;;;12.70;99.90;;;;;;4975645;28;20533;-85
2023/09/02 02:29:11;;;;;;;5.17;3.23;;;12.70;99.90;;;;;;4983201;28;20223;-86
2023/09/02 02:31:37;;;;;;;3.63;3.23;;;12.60;99.90;;;;;;5000156;28;21088;-86
2023/09/02 02:34:03;;;;;;;3.67;2.87;;;12.60;99.90;;;;;;4982235;28;20218;-84
2023/09/02 02:36:29;;;;;;;7.17;3.00;;;12.60;99.90;;;;;;4999972;28;20195;-85
2023/09/02 02:38:54;;;;;;;4.37;2.93;;;12.60;99.90;;;;;;5001059;28;20188;-84
2023/09/02 02:41:20;;;;;;;4.30;3.03;;;12.60;99.90;;;;;;4999535;28;20649;-85
2023/09/02 02:43:46;;;;;;;2.90;2.67;;;12.60;99.90;;;;;;4999944;28;20241;-86
2023/09/02 02:46:12;;;;;;;2.97;2.07;;;12.60;99.90;;;;;;4983050;28;20223;-84
2023/09/02 02:48:37;;;;;;;2.83;1.90;;;12.60;99.90;;;;;;5000298;28;20695;-86
2023/09/02 02:51:03;;;;;;;9.77;2.20;;;12.40;99.90;;;;;;5000296;28;20194;-86
2023/09/02 02:53:29;;;;;;;2.50;2.17;;;12.30;99.90;;;;;;4999418;28;20230;-83
2023/09/02 02:55:55;;;;;;;2.70;2.27;;;12.20;99.90;;;;;;4982353;28;20223;-84
2023/09/02 02:58:21;;;;;;;2.47;1.37;;;12.10;99.90;;;;;;4999124;28;20226;-84
2023/09/02 03:00:48;;;;;;;3.57;2.50;;;12.20;99.90;;;;;;4999863;28;20219;-87
2023/09/02 03:03:14;;;;;;;3.27;2.40;;;12.30;99.90;;;;;;4999672;28;20184;-85
2023/09/02 03:05:40;;;;;;;4.97;3.17;;;12.40;99.90;;;;;;4982707;28;20241;-83
2023/09/02 03:08:07;;;;;;;9.20;3.73;;;12.40;99.90;;;;;;4983208;28;20753;-86
2023/09/02 03:10:35;;;;;;;6.20;3.27;;;12.40;99.90;;;;;;4999259;28;20239;-86
2023/09/02 03:13:02;;;;;;;3.97;3.17;;;12.40;99.90;;;;;;4999728;28;20222;-86
2023/09/02 03:15:28;;;;;;;4.80;2.73;;;12.40;99.90;;;;;;5019495;28;20352;-85
2023/09/02 03:17:53;;;;;;;4.70;2.93;;;12.40;99.90;;;;;;5022460;28;20200;-85
2023/09/02 03:20:20;;;;;;;4.53;3.13;;;12.40;99.90;;;;;;5022585;28;20324;-86
2023/09/02 03:22:46;;;;;;;4.20;2.87;;;12.40;99.90;;;;;;5022501;28;20297;-84
2023/09/02 03:25:12;;;;;;;4.40;3.30;;;12.50;99.90;;;;;;5021456;28;20647;-85
2023/09/02 03:27:41;;;;;;;4.30;2.97;;;12.50;99.90;;;;;;5022021;28;20229;-85
2023/09/02 03:30:08;;;;;;;5.07;3.33;;;12.50;99.90;;;;;;5006919;28;20206;-82
2023/09/02 03:32:34;;;;;;;4.60;3.13;;;12.50;99.90;;;;;;5039107;28;20253;-86
2023/09/02 03:35:00;;;;;;;4.80;3.20;;;12.50;99.90;;;;;;5039059;28;20226;-86
2023/09/02 03:37:27;;;;;;;3.87;2.80;;;12.50;99.90;;;;;;5038706;28;20213;-84
2023/09/02 03:39:57;;;;;;;3.10;2.53;;;12.50;99.90;;;;;;5039555;28;20214;-86
2023/09/02 03:42:23;;;;;;;4.87;2.83;;;12.50;99.90;;;;;;5054045;28;20212;-85
2023/09/02 03:44:48;;;;;;;3.40;3.07;;;12.40;99.90;;;;;;5021366;28;20246;-86
2023/09/02 03:47:14;;;;;;;3.93;2.23;;;12.40;99.90;;;;;;5021819;28;20678;-85
2023/09/02 03:49:40;;;;;;;4.07;2.90;;;12.30;99.90;;;;;;4992563;28;20237;-86
2023/09/02 03:52:06;;;;;;;2.73;2.23;;;12.20;99.90;;;;;;5024452;28;20221;-83
2023/09/02 03:54:32;;;;;;;3.57;2.07;;;12.20;99.90;;;;;;5021908;28;20271;-85
2023/09/02 03:56:57;;;;;;;3.53;2.50;;;12.20;99.90;;;;;;5005037;28;20922;-84
2023/09/02 03:59:24;;;;;;;3.90;3.10;;;12.20;99.90;;;;;;5020966;28;20774;-84
2023/09/02 04:01:49;;;;;;;4.03;3.63;;;12.10;99.90;;;;;;5038973;28;20218;-86
2023/09/02 04:04:15;;;;;;;3.43;2.60;;;12.10;99.90;;;;;;4995328;28;20423;-83
2023/09/02 04:06:41;;;;;;;3.67;2.83;;;12.10;99.90;;;;;;4989126;28;20242;-86
2023/09/02 04:09:09;;;;;;;3.70;2.60;;;12.10;99.90;;;;;;5022409;28;20220;-83
2023/09/02 04:11:35;;;;;;;2.47;2.23;;;12.10;99.90;;;;;;4985687;28;20309;-84
2023/09/02 04:14:02;;;;;;;4.57;3.93;;;12.10;99.90;;;;;;5033171;28;20286;-87
2023/09/02 04:16:28;;;;;;;3.83;2.90;;;12.10;99.90;;;;;;4993129;28;20234;-85
2023/09/02 04:18:53;;;;;;;4.93;3.70;;;12.10;99.90;;;;;;5024066;28;20228;-86
2023/09/02 04:21:19;;;;;;;3.90;2.93;;;12.10;99.90;;;;;;5021028;28;20216;-86
2023/09/02 04:23:46;;;;;;;5.00;2.40;;;12.00;99.90;;;;;;5021974;28;20267;-86
2023/09/02 04:26:12;;;;;;;7.13;3.40;;;12.00;99.90;;;;;;5021690;28;20301;-83
2023/09/02 04:28:38;;;;;;;3.47;2.43;;;12.00;99.90;;;;;;5038052;28;20286;-86
2023/09/02 04:31:04;;;;;;;3.27;2.40;;;12.00;99.90;;;;;;5038376;28;20679;-83
2023/09/02 04:33:30;;;;;;;4.30;2.53;;;11.90;99.90;;;;;;5021018;28;20216;-86
2023/09/02 04:35:56;;;;;;;3.23;2.37;;;11.90;99.90;;;;;;5021783;28;20710;-84
2023/09/02 04:38:21;;;;;;;3.23;2.17;;;11.80;99.90;;;;;;5004576;28;21072;-85
2023/09/02 04:40:47;;;;;;;3.70;2.13;;;11.80;99.90;;;;;;5004354;28;20320;-85
2023/09/02 04:43:14;;;;;;;2.43;2.17;;;11.80;99.90;;;;;;5020107;28;20306;-83
2023/09/02 04:45:41;;;;;;;3.80;2.67;;;11.80;99.90;;;;;;5019909;28;20268;-86
2023/09/02 04:48:10;;;;;;;3.93;2.70;;;11.90;99.90;;;;;;5039014;28;20716;-87
2023/09/02 04:50:37;;;;;;;3.70;2.87;;;11.90;99.90;;;;;;5038861;28;20214;-86
2023/09/02 04:53:04;;;;;;;3.83;2.67;;;12.00;99.90;;;;;;5021416;28;20296;-83
2023/09/02 04:55:29;;;;;;;5.47;3.33;;;12.00;99.90;;;;;;5019981;28;20375;-84
2023/09/02 04:57:56;;;;;;;3.67;2.63;;;12.10;99.90;;;;;;5022410;28;20662;-87
2023/09/02 05:00:27;;;;;;;4.33;3.37;;;12.10;99.90;;;;;;5023534;28;20618;-85
2023/09/02 05:02:53;;;;;;;6.50;3.60;;;12.20;99.90;;;;;;5025425;28;20182;-83
2023/09/02 05:05:21;;;;;;;3.87;3.53;;;12.30;99.90;;;;;;5023885;28;20760;-86
2023/09/02 05:07:47;;;;;;;3.97;2.53;;;12.40;99.90;;;;;;5042164;28;20561;-87
2023/09/02 05:10:14;;;;;;;6.17;3.90;;;12.40;99.90;;;;;;5007037;28;20216;-87
2023/09/02 05:12:41;;;;;;;6.53;3.90;;;12.50;99.90;;;;;;5024649;28;20224;-83
2023/09/02 05:15:07;;;;;;;4.00;3.50;;;12.50;99.90;;;;;;5043089;28;20240;-87
2023/09/02 05:17:33;;;;;;;8.03;3.77;;;12.70;99.90;;;;;;5023786;28;20245;-85
2023/09/02 05:20:00;;;;;;;9.30;4.07;;;13.00;99.90;;;;;;5024390;28;20249;-86
2023/09/02 05:22:26;;;;;;;6.20;3.77;;;13.50;99.90;;;;;;5041195;28;20210;-87
2023/09/02 05:24:52;;;;;;;11.60;4.80;;;13.90;99.90;;;;;;5006856;28;20225;-85
2023/09/02 05:27:20;;;;;;;3.43;2.90;;;14.20;99.90;;;;;;5024641;28;21128;-84
2023/09/02 05:29:46;;;;;;;7.50;4.30;;;14.10;99.90;;;;;;5024197;28;20190;-86
2023/09/02 05:32:16;;;;;;;4.33;3.03;;;14.00;99.90;;;;;;5041566;28;20210;-85
2023/09/02 05:34:42;;;;;;;4.47;3.77;;;13.90;99.90;;;;;;5041837;28;20218;-84
2023/09/02 05:37:08;;;;;;;3.63;3.17;;;13.80;99.90;;;;;;5041244;28;20697;-83
2023/09/02 05:39:34;;;;;;;3.13;2.40;;;13.60;99.90;;;;;;5039282;28;20222;-86
2023/09/02 05:42:00;;;;;;;4.03;3.00;;;13.60;99.90;;;;;;5024652;28;20650;-85
2023/09/02 05:44:26;;;;;;;3.80;2.50;;;13.50;99.90;;;;;;5040903;28;20253;-86
2023/09/02 05:46:51;;;;;;;3.90;2.63;;;13.60;99.90;;;;;;5023342;28;20268;-86
2023/09/02 05:49:17;;;;;;;3.77;3.43;;;13.60;99.90;;;;;;5023727;28;20312;-85
2023/09/02 05:51:43;;;;;;;2.67;2.40;;;13.80;99.90;;;;;;5023851;28;20224;-85
2023/09/02 05:54:09;;;;;;;5.23;3.43;;;13.90;99.90;;;;;;5041233;28;20205;-87
2023/09/02 05:56:36;;;;;;;3.67;2.23;;;14.00;99.90;;;;;;5007407;28;20598;-86
2023/09/02 05:59:02;;;;;;;6.83;4.23;;;14.30;99.90;;;;;;5008190;28;20213;-87
2023/09/02 06:01:28;;;;;;;7.57;3.03;;;15.00;99.90;;;;;;5041032;28;21057;-83
2023/09/02 06:03:54;;;;;;;6.87;4.33;;;15.90;99.90;;;;;;5040821;28;20229;-85
2023/09/02 06:06:20;;;;;;;9.47;5.90;;;17.20;99.90;;;;;;5005672;28;20681;-85
2023/09/02 06:08:46;;;;;;;7.53;4.53;;;19.20;99.90;;;;;;5023909;28;20190;-87
2023/09/02 06:11:12;;;;;;;5.60;3.57;;;20.90;99.90;;;;;;5023762;28;21207;-87
2023/09/02 06:13:37;;;;;;;4.90;3.10;;;22.80;99.90;;;;;;5040326;28;20218;-85
2023/09/02 06:16:04;;;;;;;5.60;3.10;;;24.40;99.90;;;;;;5006478;28;20233;-85
2023/09/02 06:18:31;;;;;;;6.40;3.33;;;26.00;99.90;;;;;;5023304;28;20212;-82
2023/09/02 06:20:57;;;;;;;4.50;2.77;;;27.20;99.90;;;;;;5023819;28;20198;-84
2023/09/02 06:23:27;;;;;;;4.67;2.70;;;26.60;99.90;;;;;;5023438;28;20208;-84
2023/09/02 06:25:59;;;;;;;5.97;2.43;;;25.10;99.90;;;;;;5021966;28;20229;-84
2023/09/02 06:28:26;;;;;;;4.47;3.20;;;23.40;99.90;;;;;;5040369;28;20218;-85
2023/09/02 06:30:52;;;;;;;3.87;2.90;;;22.10;99.90;;;;;;5022713;28;20706;-82
2023/09/02 06:33:21;;;;;;;4.50;2.73;;;20.90;99.90;;;;;;5023137;28;20916;-85
2023/09/02 06:35:48;;;;;;;4.70;2.87;;;20.00;99.90;;;;;;5023493;28;20621;-85
2023/09/02 06:38:13;;;;;;;3.57;2.70;;;19.50;99.90;;;;;;5006150;28;20287;-82
2023/09/02 06:40:39;;;;;;;8.30;2.83;;;19.00;99.90;;;;;;5005647;28;20232;-83
2023/09/02 06:43:05;;;;;;;4.03;2.97;;;18.40;99.90;;;;;;5040682;28;20217;-82
2023/09/02 06:45:30;;;;;;;4.77;2.60;;;18.10;99.90;;;;;;5005907;28;20260;-86
2023/09/02 06:47:56;;;;;;;3.73;2.67;;;17.80;99.90;;;;;;5023494;28;20567;-86
2023/09/02 06:50:22;;;;;;;4.33;2.87;;;17.60;99.90;;;;;;5022342;28;20221;-86
2023/09/02 06:52:48;;;;;;;3.77;2.67;;;17.40;99.90;;;;;;5022654;28;20263;-87
2023/09/02 06:55:15;;;;;;;4.40;2.90;;;17.50;99.90;;;;;;5023005;28;20229;-87
2023/09/02 06:57:44;;;;;;;3.93;2.83;;;18.80;99.90;;;;;;4998424;28;20218;-86
2023/09/02 07:00:11;;;;;;;4.53;2.93;;;20.80;99.90;;;;;;5040903;28;20266;-86
2023/09/02 07:02:37;;;;;;;3.87;2.40;;;21.90;99.90;;;;;;5003073;28;20225;-83
2023/09/02 07:05:03;;;;;;;4.03;2.97;;;22.90;99.90;;;;;;5018646;28;20507;-82
2023/09/02 07:07:30;;;;;;;3.37;2.33;;;23.50;99.90;;;;;;5018143;28;20554;-84
2023/09/02 07:09:56;;;;;;;4.90;2.80;;;23.60;99.90;;;;;;5025228;28;20294;-83
2023/09/02 07:12:22;;;;;;;4.43;2.80;;;25.10;99.90;;;;;;5003950;28;20816;-83
2023/09/02 07:14:48;;;;;;;3.25;2.38;;;26.30;99.90;;;;;;5002658;28;20191;-85
2023/09/02 07:17:13;;;;;;;3.70;2.95;;;27.70;99.90;;;;;;5004731;28;20210;-83
2023/09/02 07:19:39;;;;;;;3.08;2.78;;;29.10;99.90;;;;;;5041438;28;20229;-84
2023/09/02 07:22:05;;;;;;;3.40;2.53;;;29.50;99.90;;;;;;4993884;28;20214;-87
2023/09/02 07:24:31;;;;;;;4.00;2.35;;;30.00;99.90;;;;;;5019714;28;20245;-83
2023/09/02 07:26:56;;;;;;;3.63;2.72;;;30.40;99.90;;;;;;5020295;28;20758;-86
2023/09/02 07:29:22;;;;;;;5.47;2.58;;;30.00;99.90;;;;;;5038732;28;20271;-85
2023/09/02 07:31:48;;;;;;;5.30;2.55;;;30.20;99.90;;;;;;5009339;28;20252;-84
2023/09/02 07:34:14;;;;;;;2.70;2.08;;;28.80;99.90;;;;;;5010008;28;20220;-84
2023/09/02 07:36:41;;;;;;;6.47;2.97;;;27.00;99.90;;;;;;5018310;28;20221;-85
2023/09/02 07:39:07;;;;;;;3.58;2.28;;;27.20;99.90;;;;;;5020449;28;20233;-86
2023/09/02 07:41:32;;;;;;;4.05;2.42;;;26.70;99.90;;;;;;5009619;28;20811;-84
2023/09/02 07:43:58;;;;;;;3.15;2.40;;;26.40;99.90;;;;;;5040616;28;20233;-86
2023/09/02 07:46:24;;;;;;;2.92;1.98;;;27.40;99.90;;;;;;5011382;28;20226;-84
2023/09/02 07:48:50;;;;;;;2.40;2.20;;;28.80;99.90;;;;;;5034422;28;20225;-82
2023/09/02 07:51:19;;;;;;;1.48;1.33;;;28.50;99.90;;;;;;5002345;28;20325;-86
2023/09/02 07:53:45;;;;;;;3.15;2.05;;;29.20;99.90;;;;;;5039522;28;20228;-86
2023/09/02 07:56:11;;;;;;;2.83;2.20;;;29.40;99.90;;;;;;4988999;28;20735;-87
2023/09/02 07:58:37;;;;;;;3.38;1.92;;;29.30;99.90;;;;;;5046105;28;20214;-87
2023/09/02 08:01:02;;;;;;;3.25;2.05;;;29.70;99.90;;;;;;5014355;28;20219;-86
2023/09/02 08:03:28;;;;;;;4.38;2.25;;;28.80;99.90;;;;;;5004202;28;20622;-83
2023/09/02 08:05:54;;;;;;;2.42;1.88;;;28.60;99.90;;;;;;5021930;28;20221;-86
2023/09/02 08:08:20;;;;;;;1.58;1.27;;;28.90;99.90;;;;;;5021908;28;20272;-87
2023/09/02 08:10:47;;;;;;;3.17;1.40;;;28.90;99.90;;;;;;5032097;28;20538;-86
2023/09/02 08:13:13;;;;;;;1.92;1.83;;;28.90;99.90;;;;;;4995637;28;20260;-86
2023/09/02 08:15:39;;;;;;;2.78;1.73;;;28.70;99.90;;;;;;4998535;28;20263;-84
2023/09/02 08:18:05;;;;;;;1.70;1.60;;;28.60;99.90;;;;;;4999096;28;20198;-86
2023/09/02 08:20:32;;;;;;;3.58;1.73;;;28.10;99.90;;;;;;5017879;28;20706;-87
2023/09/02 08:22:58;;;;;;;2.78;1.98;;;28.30;99.90;;;;;;5005220;28;20711;-82
2023/09/02 08:25:24;;;;;;;4.53;1.83;;;29.40;99.90;;;;;;4998294;28;20650;-85
2023/09/02 08:27:50;;;;;;;4.40;2.08;;;29.60;99.90;;;;;;5001310;28;20242;-85
2023/09/02 08:30:16;;;;;;;2.03;1.63;;;29.50;99.90;;;;;;5015237;28;20698;-85
2023/09/02 08:32:43;;;;;;;3.80;1.73;;;30.20;99.90;;;;;;5000948;28;20187;-85
2023/09/02 08:35:09;;;;;;;3.65;2.17;;;28.40;99.90;;;;;;5003257;28;20259;-85
2023/09/02 08:37:37;;;;;;;1.80;1.67;;;27.80;99.90;;;;;;5014594;28;20226;-86
2023/09/02 08:40:03;;;;;;;1.85;1.52;;;28.30;99.90;;;;;;5015636;28;20223;-87
2023/09/02 08:42:31;;;;;;;2.80;1.90;;;28.00;99.90;;;;;;5002533;28;20189;-85
2023/09/02 08:44:58;;;;;;;2.97;1.40;;;28.70;99.90;;;;;;5003261;28;20272;-83
2023/09/02 08:47:27;;;;;;;6.55;2.22;;;29.10;99.90;;;;;;5003371;28;20866;-84
2023/09/02 08:49:55;;;;;;;2.00;1.10;;;28.60;99.90;;;;;;5007724;28;20215;-85
2023/09/02 08:52:21;;;;;;;2.83;1.88;;;28.00;99.90;;;;;;5001589;28;20223;-85
2023/09/02 08:54:48;;;;;;;3.00;1.65;;;27.70;99.90;;;;;;5007670;28;20707;-87
2023/09/02 08:57:16;;;;;;;2.72;2.10;;;27.60;99.90;;;;;;5020682;28;20682;-86
2023/09/02 08:59:41;;;;;;;1.80;1.70;;;26.40;99.90;;;;;;5002876;28;20275;-85
2023/09/02 09:02:11;;;;;;;3.03;2.33;;;26.60;99.90;;;;;;5002175;28;20261;-87
2023/09/02 09:04:38;;;;;;;3.55;2.33;;;27.30;99.90;;;;;;5014159;28;20261;-86
2023/09/02 09:07:05;;;;;;;3.03;2.10;;;29.30;99.90;;;;;;5013282;28;20657;-86
2023/09/02 09:09:36;;;;;;;3.33;2.00;;;30.20;99.90;;;;;;5002263;28;20231;-86
2023/09/02 09:12:04;;;;;;;3.47;2.10;;;28.20;99.90;;;;;;4985320;28;20191;-86
2023/09/02 09:14:36;;;;;;;2.83;1.88;;;27.40;99.90;;;;;;5019880;28;20230;-85
2023/09/02 09:17:04;;;;;;;2.35;1.80;;;26.80;99.90;;;;;;5006856;28;20237;-84
2023/09/02 09:19:30;;;;;;;3.03;1.83;;;27.90;99.90;;;;;;5000828;28;20715;-87
2023/09/02 09:21:57;;;;;;;3.10;2.00;;;30.00;99.90;;;;;;5007796;28;20262;-85
2023/09/02 09:24:23;;;;;;;3.42;2.38;;;31.20;99.90;;;;;;5019337;28;20634;-84
2023/09/02 09:26:49;;;;;;;3.25;2.47;;;30.90;99.90;;;;;;5001352;28;20202;-85
2023/09/02 09:29:17;;;;;;;2.78;1.77;;;30.80;99.90;;;;;;5000108;28;20281;-84
2023/09/02 09:31:44;;;;;;;1.73;1.25;;;31.10;99.90;;;;;;5012708;28;20215;-86
2023/09/02 09:34:10;;;;;;;1.92;1.20;;;30.10;99.90;;;;;;5012253;28;20227;-85
2023/09/02 09:36:36;;;;;;;4.22;1.65;;;30.50;99.90;;;;;;5000315;28;20223;-86
2023/09/02 09:39:08;;;;;;;4.65;1.70;;;30.00;99.90;;;;;;5000630;28;20395;-86
2023/09/02 09:41:35;;;;;;;3.47;1.80;;;29.90;99.90;;;;;;5020497;28;20228;-86
2023/09/02 09:44:12;;;;;;;1.90;1.70;;;27.60;99.90;;;;;;5004208;28;20302;-84
2023/09/02 09:46:44;;;;;;;2.67;1.20;;;25.90;99.90;;;;;;5000059;28;20227;-85
2023/09/02 09:49:29;;;;;;;2.28;1.40;;;25.90;99.90;;;;;;5007512;28;20261;-85
2023/09/02 09:52:01;;;;;;;1.42;1.10;;;27.70;99.90;;;;;;5015427;28;20697;-87
2023/09/02 09:54:37;;;;;;;1.30;1.20;;;27.80;99.90;;;;;;5000449;28;20717;-86
2023/09/02 09:57:04;;;;;;;1.73;1.05;;;26.70;99.90;;;;;;5001867;28;20183;-84
2023/09/02 09:59:30;;;;;;;2.05;0.90;;;27.10;99.90;;;;;;5019947;28;20313;-86
2023/09/02 10:01:57;;;;;;;1.90;0.85;;;26.90;99.90;;;;;;4989762;28;20215;-85
2023/09/02 10:04:23;;;;;;;1.08;0.98;;;27.10;99.90;;;;;;5000614;28;20297;-83
2023/09/02 10:06:48;;;;;;;1.42;0.90;;;27.60;99.90;;;;;;5005951;28;20230;-84
2023/09/02 10:09:14;;;;;;;1.15;0.70;;;27.70;99.90;;;;;;5019346;28;20190;-83
2023/09/02 10:11:42;;;;;;;3.50;1.00;;;27.80;99.90;;;;;;4984148;28;20630;-86
2023/09/02 10:14:09;;;;;;;0.60;0.60;;;29.10;99.90;;;;;;5001117;28;20265;-84
2023/09/02 10:16:35;;;;;;;0.93;0.77;;;28.40;99.90;;;;;;4994391;28;21136;-83
2023/09/02 10:19:04;;;;;;;1.10;0.55;;;28.10;99.90;;;;;;5013193;28;20219;-84
2023/09/02 10:21:31;;;;;;;0.90;0.88;;;27.20;99.90;;;;;;5001281;28;20202;-87
2023/09/02 10:24:02;;;;;;;0.70;0.70;;;26.30;99.90;;;;;;5000502;28;20179;-86
2023/09/02 10:26:37;;;;;;;0.93;0.73;;;28.10;99.90;;;;;;5019692;28;20233;-86
2023/09/02 10:29:08;;;;;;;1.05;0.70;;;29.20;99.90;;;;;;5005555;28;20210;-84
2023/09/02 10:31:40;;;;;;;0.75;0.75;;;27.90;99.90;;;;;;5043653;28;20309;-84
2023/09/02 10:34:21;;;;;;;1.00;0.85;;;28.50;99.90;;;;;;5013425;28;20250;-85
2023/09/02 10:36:56;;;;;;;0.82;0.70;;;28.80;99.90;;;;;;5004726;28;20564;-88
2023/09/02 10:39:43;;;;;;;0.98;0.80;;;28.80;99.90;;;;;;5017993;28;20627;-86
2023/09/02 10:42:10;;;;;;;1.73;1.00;;;29.30;99.90;;;;;;5001412;28;20187;-86
2023/09/02 10:44:39;;;;;;;0.98;0.90;;;29.50;99.90;;;;;;5000319;28;20231;-84
2023/09/02 10:47:05;;;;;;;1.42;0.75;;;28.70;99.90;;;;;;5015635;28;20280;-84
2023/09/02 10:49:32;;;;;;;1.55;1.23;;;27.50;99.90;;;;;;5009865;28;20261;-84
2023/09/02 10:51:59;;;;;;;0.73;0.70;;;27.80;99.90;;;;;;5000404;28;20701;-85
2023/09/02 10:54:24;;;;;;;0.68;0.60;;;27.50;99.90;;;;;;5001615;28;20217;-83
2023/09/02 10:56:51;;;;;;;0.95;0.90;;;27.50;99.90;;;;;;5020572;28;20286;-82
2023/09/02 10:59:30;;;;;;;0.70;0.63;;;28.00;99.90;;;;;;5002227;28;20230;-82
2023/09/02 11:01:55;;;;;;;0.70;0.70;;;27.30;99.90;;;;;;5014662;28;20218;-84
2023/09/02 11:04:40;;;;;;;1.27;1.17;;;26.90;99.90;;;;;;5009007;28;20223;-86
2023/09/02 11:07:22;;;;;;;2.17;0.90;;;27.70;99.90;;;;;;5012050;28;20223;-85
2023/09/02 11:09:52;;;;;;;0.60;0.60;;;28.30;99.90;;;;;;4999770;28;20223;-84
2023/09/02 11:12:17;;;;;;;0.70;0.70;;;28.20;99.90;;;;;;5001571;28;20195;-84
2023/09/02 11:15:08;;;;;;;1.02;0.70;;;25.80;99.90;;;;;;5036208;28;20209;-85
2023/09/02 11:17:38;;;;;;;0.88;0.60;;;24.80;99.90;;;;;;4998320;28;20300;-86
2023/09/02 11:20:08;;;;;;;1.25;0.68;;;24.40;99.90;;;;;;5015549;28;20221;-83
2023/09/02 11:23:02;;;;;;;1.50;1.00;;;24.60;99.90;;;;;;5007599;28;20258;-85
2023/09/02 11:25:30;;;;;;;1.00;0.65;;;25.00;99.90;;;;;;5010815;28;20264;-83
2023/09/02 11:27:58;;;;;;;0.70;0.60;;;25.20;99.90;;;;;;5011460;28;20268;-83
2023/09/02 11:30:25;;;;;;;0.68;0.68;;;25.20;99.90;;;;;;4998979;28;20314;-83
2023/09/02 11:32:51;;;;;;;0.80;0.77;;;25.80;99.90;;;;;;4999219;28;20195;-84
2023/09/02 11:35:32;;;;;;;0.60;0.60;;;26.00;99.90;;;;;;5016851;28;20218;-83
2023/09/02 11:37:59;;;;;;;0.90;0.90;;;24.80;99.90;;;;;;5004208;28;20221;-84
2023/09/02 11:40:26;;;;;;;0.75;0.75;;;25.80;99.90;;;;;;4999031;28;20227;-82
2023/09/02 11:43:00;;;;;;;0.70;0.63;;;26.10;99.90;;;;;;5005578;28;20227;-84
2023/09/02 11:45:32;;;;;;;1.10;0.93;;;25.40;99.90;;;;;;5016867;28;20296;-85
2023/09/02 11:47:58;;;;;;;1.00;0.80;;;24.10;99.90;;;;;;4999458;28;20179;-85
2023/09/02 11:50:24;;;;;;;2.63;1.13;;;24.60;99.90;;;;;;4998845;28;20272;-82
2023/09/02 11:52:56;;;;;;;1.17;0.82;;;25.30;99.90;;;;;;5011953;28;20320;-84
2023/09/02 11:55:23;;;;;;;1.20;0.75;;;24.60;99.90;;;;;;5009192;28;20269;-82
2023/09/02 11:57:49;;;;;;;2.58;0.77;;;23.90;99.90;;;;;;5036416;28;20387;-86
2023/09/02 12:00:17;;;;;;;1.00;0.90;;;23.90;99.90;;;;;;5050427;28;20182;-84
2023/09/02 12:02:44;;;;;;;2.45;0.90;;;24.20;99.90;;;;;;5018964;28;20179;-85
2023/09/02 12:05:10;;;;;;;0.98;0.93;;;23.90;99.90;;;;;;5051993;28;20241;-85
2023/09/02 12:07:37;;;;;;;2.45;1.08;;;23.90;99.90;;;;;;5013497;28;20285;-85
2023/09/02 12:10:10;;;;;;;1.25;1.15;;;24.10;99.90;;;;;;5012703;28;20457;-84
2023/09/02 12:12:47;;;;;;;2.42;1.45;;;23.80;99.90;;;;;;5022686;28;20222;-84
2023/09/02 12:15:19;;;;;;;1.38;1.27;;;24.20;99.90;;;;;;5009273;28;20237;-83
2023/09/02 12:17:47;;;;;;;1.00;0.90;;;24.10;99.90;;;;;;5045686;28;20542;-85
2023/09/02 12:20:15;;;;;;;1.35;0.82;;;23.90;99.90;;;;;;5011144;28;20283;-83
2023/09/02 12:22:43;;;;;;;1.00;0.80;;;23.20;99.90;;;;;;5037137;28;20214;-82
2023/09/02 12:25:17;;;;;;;3.60;1.30;;;22.90;99.90;;;;;;5019556;28;20741;-82
2023/09/02 12:27:43;;;;;;;1.85;0.98;;;23.30;99.90;;;;;;5011548;28;20213;-84
2023/09/02 12:30:10;;;;;;;3.72;1.10;;;23.10;99.90;;;;;;5028736;28;20275;-85
2023/09/02 12:32:36;;;;;;;1.67;1.58;;;22.40;99.90;;;;;;5009227;28;20226;-82
2023/09/02 12:35:09;;;;;;;1.67;1.55;;;22.30;99.90;;;;;;5025738;28;20301;-85
2023/09/02 12:37:35;;;;;;;3.05;1.77;;;22.60;99.90;;;;;;5019129;28;20210;-84
2023/09/02 12:40:09;;;;;;;1.80;1.17;;;22.90;99.90;;;;;;5004030;28;20271;-85
2023/09/02 12:42:35;;;;;;;1.20;0.95;;;23.20;99.90;;;;;;5001671;28;20256;-82
2023/09/02 12:45:01;;;;;;;0.80;0.80;;;22.20;99.90;;;;;;5011385;28;20218;-83
2023/09/02 12:47:28;;;;;;;3.53;1.00;;;22.20;99.90;;;;;;5009080;28;20228;-85
2023/09/02 12:49:55;;;;;;;1.45;1.35;;;22.30;99.90;;;;;;5039108;28;20260;-83